Union Cross, North Carolina
Current Conditions -  °F | °C
As of 8:54 AM on Thursday 29 Jan 2015 (Local Time) from KGSO Reporting Station
Broken Clouds Broken Clouds  
Wind Chill: 29°   Ceiling: 25000
Heat Index: 33°   Visibility: 10mi
Dew Point: 19°   Wind: 5mph
Humidity: 56%   Direction: 220°SW
Pressure: 30.29"   Gusts: NA
Location:  36.1188°N, 80.075°W
Report Text: KGSO 291354Z 22004KT 10SM BKN250 01/M07 A3029 RMK AO2 SLP263 T00061072
Loading
Personal Weather Stations






























Interactive Weather Map New forecast layout! Learn more

10-Day Weather Forecast

Advertisements
Track Severe Weather on mobile